Toston, MT (59643)

7:18 AM MDT on September 05, 2015 (GMT -0600)
Townsend Seeds | | Change Station
CLOSE
Current Station
Personal Weather Station
Location: Townsend, MT
Elevation: 3825 ft
Nearby Weather Stations

Elev 3825 ft 46.32 °N, 111.52 °W | Updated 44 seconds ago

Overcast
Overcast
50.4 °F
Feels Like 50.4 °F
N
6.3
Wind Variable Wind from North
Gusts 13.2 mph

Today
High -- | Low -- °F
--% Chance of Precip.
Yesterday
High -- | Low -- °F
Precip. -- in
6:51 AM 7:57 PM
Waning Gibbous, 48% visible
Pressure 29.88 in
Visibility 10.0 miles
Clouds Scattered Clouds 500 ft
Overcast 2400 ft
Dew Point 43 °F
Humidity 76%
Rainfall 0.08 in
Snow Depth Not available.
UV 0 out of 12
Pollen 2.60 out of 12
Air Quality Not available.
Flu Activity Not available.
SPECI KBZN 051310Z 21003KT 10SM SCT005 OVC024 09/08 A2988 RMK AO2 T00940083 $
Pressure 29.88 in
Visibility 10.0 miles
Clouds Scattered Clouds 500 ft
Overcast 2400 ft
Dew Point 43 °F
Humidity 76%
Rainfall 0.08 in
Snow Depth Not available.
UV 0 out of 12
Pollen 2.60 out of 12
Air Quality Not available.
Flu Activity Not available.
SPECI KBZN 051310Z 21003KT 10SM SCT005 OVC024 09/08 A2988 RMK AO2 T00940083 $

10-Day Weather Forecast

×

Almanac

Astronomy

Sep. 05, 2015 Rise Set
Actual Time
Civil Twilight
Nautical Twilight
Astronomical Twilight
Moon
Length of Visible Light
Length of Day
Tomorrow will be .
, % of the Moon is Illuminated

Today's Extremes

State Highs State Lows

Community

WunderPhotos

Upload Photos

1,852,454 photos uploaded!

WunderBlogs® & News

Nearby

Air Quality

  Air Quality AQ Index Pollutant
Not available.

Snow Depth

Station Depth Elevation

Earthquake Activity

City Distance Mag. Time & Date
Minimum magnitude displayed is 2.5.

Coastal Water Temperatures

Place Temperature

Stations

Nearby Weather Stations

Station Location Temp. Windchill Dew Point Humidity Wind Precip. Elev Updated Type